Time;durP1;ratioP1;P1;durP2;ratioP2;P2;SDS_P1;SDS_P2;PMS_P1;PMS_P2;Temp;Humidity;BMP_temperature;BMP_pressure;BME280_temperature;BME280_humidity;BME280_pressure;Samples;Min_cycle;Max_cycle;Signal;HPM_P1;HPM_P2
2021/08/02 00:00:08;;;;;;;10.30;9.30;;;;;;;-143.35;80.79;76456.75;4882356;29;20456;-80
2021/08/02 00:03:11;;;;;;;10.83;9.93;;;;;;;-143.35;80.79;76456.75;4883329;29;20473;-81
2021/08/02 00:05:59;;;;;;;9.83;8.67;;;;;;;-143.35;80.81;76450.81;4870568;29;20476;-81
2021/08/02 00:08:50;;;;;;;9.80;9.00;;;;;;;-143.35;81.09;76466.66;4883533;29;20979;-81
2021/08/02 00:11:44;;;;;;;9.97;9.07;;;;;;;-143.35;81.05;76460.72;4883184;29;20525;-81
2021/08/02 00:14:33;;;;;;;9.37;8.47;;;;;;;-143.35;81.38;76456.75;4881496;29;20453;-81
2021/08/02 00:17:22;;;;;;;10.73;9.63;;;;;;;-143.35;81.21;76450.81;4881605;29;20482;-82
2021/08/02 00:20:13;;;;;;;10.00;9.00;;;;;;;-143.35;81.44;76460.72;4867706;29;20449;-82
2021/08/02 00:23:03;;;;;;;9.87;9.07;;;;;;;-143.35;81.68;76466.66;4883325;29;20480;-81
2021/08/02 00:25:51;;;;;;;9.83;9.03;;;;;;;-143.35;81.70;76468.63;4883414;29;20497;-80
2021/08/02 00:28:39;;;;;;;10.00;9.10;;;;;;;-143.35;82.22;76478.50;4883271;29;20487;-81
2021/08/02 00:31:28;;;;;;;10.30;9.50;;;;;;;-143.35;82.19;76474.56;4869294;29;20484;-81
2021/08/02 00:34:17;;;;;;;10.83;9.73;;;;;;;-143.35;82.17;76480.50;4883012;29;20903;-82
2021/08/02 00:37:08;;;;;;;10.40;9.50;;;;;;;-143.35;82.83;76478.50;4881405;29;20476;-80
2021/08/02 00:40:01;;;;;;;10.83;9.93;;;;;;;-143.35;82.66;76486.44;4880991;29;20548;-80
2021/08/02 00:43:06;;;;;;;10.53;9.63;;;;;;;-143.35;83.30;76494.34;4879998;29;20468;-80
2021/08/02 00:45:54;;;;;;;15.23;10.63;;;;;;;-143.35;83.60;76490.38;4866908;29;20535;-80
2021/08/02 00:48:50;;;;;;;11.23;10.23;;;;;;;-143.35;83.92;76496.31;4879475;29;20456;-80
2021/08/02 00:51:46;;;;;;;11.43;10.00;;;;;;;-143.35;83.65;76494.34;4870314;29;20621;-79
2021/08/02 00:54:35;;;;;;;10.90;10.00;;;;;;;-143.35;83.59;76484.44;4869782;29;20448;-80
2021/08/02 00:57:23;;;;;;;11.60;10.40;;;;;;;-143.35;83.33;76484.44;4881876;29;20487;-81
2021/08/02 01:00:14;;;;;;;10.73;9.93;;;;;;;-143.35;83.54;76488.41;4868782;29;20449;-80
2021/08/02 01:03:08;;;;;;;11.40;10.37;;;;;;;-143.35;83.52;76484.44;4868929;29;20468;-80
2021/08/02 01:05:56;;;;;;;11.17;10.10;;;;;;;-143.35;83.22;76488.41;4881425;29;20821;-80
2021/08/02 01:08:50;;;;;;;12.07;11.00;;;;;;;-143.35;83.62;76500.28;4880283;29;20560;-80
2021/08/02 01:11:39;;;;;;;11.60;10.50;;;;;;;-143.35;84.30;76514.13;4849012;29;20469;-79
2021/08/02 01:14:27;;;;;;;11.27;10.27;;;;;;;-143.35;84.71;76520.06;4862302;29;20453;-80
2021/08/02 01:17:16;;;;;;;11.50;10.30;;;;;;;-143.35;84.74;76518.09;4861168;29;20480;-79
2021/08/02 01:20:08;;;;;;;11.93;10.93;;;;;;;-143.35;84.87;76516.09;4870392;29;20512;-80
2021/08/02 01:23:02;;;;;;;13.60;10.80;;;;;;;-143.35;85.07;76531.94;4871590;29;20483;-81
2021/08/02 01:26:19;;;;;;;11.77;10.63;;;;;;;-143.35;85.34;76529.94;4873323;29;20536;-79
2021/08/02 01:29:48;;;;;;;12.17;10.97;;;;;;;-143.35;85.27;76529.94;4886588;29;20449;-81
2021/08/02 01:32:36;;;;;;;10.90;9.93;;;;;;;-143.35;85.38;76524.00;4872781;29;20476;-81
2021/08/02 01:35:26;;;;;;;11.87;10.77;;;;;;;-143.35;85.49;76518.09;4872926;29;20911;-81
2021/08/02 01:38:17;;;;;;;10.00;9.20;;;;;;;-143.35;85.28;76506.22;4873545;29;20457;-80
2021/08/02 01:41:06;;;;;;;11.53;10.40;;;;;;;-143.35;84.64;76502.25;4872030;29;20459;-80
2021/08/02 01:43:57;;;;;;;10.97;10.07;;;;;;;-143.35;84.51;76496.31;4873315;29;20467;-81
2021/08/02 01:46:53;;;;;;;10.27;9.37;;;;;;;-143.35;84.28;76490.38;4872567;29;20460;-81
2021/08/02 01:49:45;;;;;;;10.37;9.47;;;;;;;-143.35;84.34;76510.16;4884627;29;20445;-81
2021/08/02 01:52:42;;;;;;;10.27;9.47;;;;;;;-143.35;84.40;76510.16;4884915;29;20480;-81
2021/08/02 01:55:33;;;;;;;10.97;9.97;;;;;;;-143.35;84.71;76518.09;4853838;29;20461;-81
2021/08/02 01:58:21;;;;;;;10.30;9.40;;;;;;;-143.35;85.13;76526.00;4862405;29;20449;-81
2021/08/02 02:01:19;;;;;;;11.63;10.63;;;;;;;-143.35;85.46;76539.84;4871393;29;20484;-82
2021/08/02 02:04:08;;;;;;;11.97;10.87;;;;;;;-143.35;85.78;76537.88;4885848;29;20471;-81
2021/08/02 02:07:01;;;;;;;10.77;9.83;;;;;;;-143.35;85.50;76533.91;4887128;29;20532;-82
2021/08/02 02:09:58;;;;;;;9.67;8.83;;;;;;;-143.35;85.43;76535.88;4854440;29;20460;-81
2021/08/02 02:12:50;;;;;;;11.67;10.20;;;;;;;-143.35;85.28;76531.94;4854723;29;20473;-81
2021/08/02 02:15:39;;;;;;;11.30;10.20;;;;;;;-143.35;85.55;76533.91;4853865;29;20460;-82
2021/08/02 02:18:30;;;;;;;11.30;10.30;;;;;;;-143.35;85.10;76518.09;4874382;29;20453;-82
2021/08/02 02:21:19;;;;;;;11.03;10.00;;;;;;;-143.35;84.90;76520.06;4873125;29;20930;-82
2021/08/02 02:24:10;;;;;;;10.70;9.70;;;;;;;-143.35;85.13;76520.06;4873683;29;20457;-81
2021/08/02 02:26:59;;;;;;;11.77;10.10;;;;;;;-143.35;84.85;76524.00;4872666;29;21057;-81
2021/08/02 02:29:51;;;;;;;12.43;10.30;;;;;;;-143.35;85.20;76522.03;4872325;29;20452;-81
2021/08/02 02:32:43;;;;;;;11.20;10.30;;;;;;;-143.35;85.08;76527.97;5170508;23;20523;-81
2021/08/02 02:35:42;;;;;;;11.43;10.37;;;;;;;-143.35;84.83;76531.94;4897028;29;20451;-81
2021/08/02 02:38:31;;;;;;;11.33;10.23;;;;;;;-143.35;84.86;76535.88;4898149;29;20469;-81
2021/08/02 02:41:20;;;;;;;9.80;9.10;;;;;;;-143.35;84.62;76526.00;4887536;29;20456;-81
2021/08/02 02:44:11;;;;;;;11.70;10.70;;;;;;;-143.35;84.97;76547.75;4889246;29;20448;-81
2021/08/02 02:47:01;;;;;;;12.87;11.10;;;;;;;-143.35;85.52;76551.72;4902224;29;20823;-82
2021/08/02 02:49:51;;;;;;;10.80;9.90;;;;;;;-143.35;85.84;76557.66;4887551;29;20813;-80
2021/08/02 02:52:39;;;;;;;11.37;10.20;;;;;;;-143.35;86.36;76569.50;4902947;29;20559;-81
2021/08/02 02:55:29;;;;;;;11.33;10.33;;;;;;;-143.35;86.75;76573.47;4893277;29;20460;-81
2021/08/02 02:58:18;;;;;;;11.37;9.77;;;;;;;-143.35;86.95;76571.50;4888031;29;20824;-82
2021/08/02 03:01:08;;;;;;;11.33;10.30;;;;;;;-143.35;87.05;76571.50;4887297;29;20990;-81
2021/08/02 03:04:00;;;;;;;11.00;10.00;;;;;;;-143.35;86.76;76569.50;4888712;29;20451;-82
2021/08/02 03:06:51;;;;;;;12.47;10.47;;;;;;;-143.35;86.51;76571.50;4888822;29;20972;-81
2021/08/02 03:09:42;;;;;;;10.50;9.47;;;;;;;-143.35;86.50;76565.56;4892648;29;20828;-82
2021/08/02 03:12:34;;;;;;;11.67;10.00;;;;;;;-143.35;86.30;76561.59;4888533;29;20574;-79
2021/08/02 03:15:22;;;;;;;11.00;10.00;;;;;;;-143.35;85.99;76557.66;4884588;29;20451;-81
2021/08/02 03:18:10;;;;;;;12.63;10.13;;;;;;;-143.35;85.83;76559.63;4897503;29;20448;-80
2021/08/02 03:20:59;;;;;;;12.53;10.30;;;;;;;-143.35;85.94;76563.59;4897653;29;20452;-80
2021/08/02 03:23:54;;;;;;;10.03;9.23;;;;;;;-143.35;85.65;76557.66;4896991;29;20452;-81
2021/08/02 03:26:45;;;;;;;10.30;9.30;;;;;;;-143.35;85.90;76549.72;4895953;29;20952;-79
2021/08/02 03:29:35;;;;;;;10.40;9.37;;;;;;;-143.35;85.74;76543.78;4894963;29;20475;-81
2021/08/02 03:32:25;;;;;;;9.67;8.47;;;;;;;-143.35;84.15;76547.75;4898256;29;20896;-82
2021/08/02 03:35:14;;;;;;;9.43;8.00;;;;;;;-143.35;83.96;76543.78;4888678;29;20991;-79
2021/08/02 03:38:04;;;;;;;8.03;6.87;;;;;;;-143.35;83.56;76553.69;4901206;29;20492;-81
2021/08/02 03:40:52;;;;;;;7.50;6.07;;;;;;;-143.35;82.85;76545.78;4901204;29;20975;-81
2021/08/02 03:43:41;;;;;;;8.20;6.50;;;;;;;-143.35;82.95;76547.75;4902443;29;20444;-81
2021/08/02 03:46:30;;;;;;;6.60;5.53;;;;;;;-143.35;82.89;76557.66;4901550;29;20976;-81
2021/08/02 03:49:18;;;;;;;7.43;5.93;;;;;;;-143.35;83.07;76547.75;4900443;29;20455;-80
2021/08/02 03:52:06;;;;;;;7.77;6.90;;;;;;;-143.35;83.42;76555.66;4900316;29;20472;-82
2021/08/02 03:54:55;;;;;;;6.73;5.37;;;;;;;-143.35;83.19;76561.59;4882199;29;20531;-82
2021/08/02 03:57:43;;;;;;;6.20;5.20;;;;;;;-143.35;81.25;76573.47;4886128;29;20491;-81
2021/08/02 04:00:31;;;;;;;5.73;5.20;;;;;;;-143.35;80.99;76565.56;4891585;29;20447;-79
2021/08/02 04:03:18;;;;;;;6.37;4.77;;;;;;;-143.35;80.97;76579.41;4901075;29;20464;-81
2021/08/02 04:06:07;;;;;;;7.17;4.93;;;;;;;-143.35;80.71;76579.41;4901854;29;20534;-80
2021/08/02 04:08:55;;;;;;;4.70;4.30;;;;;;;-143.35;80.90;76579.41;4901273;29;20956;-81
2021/08/02 04:11:45;;;;;;;5.60;4.90;;;;;;;-143.35;80.91;76583.38;4900524;29;20983;-80
2021/08/02 04:14:33;;;;;;;6.30;4.63;;;;;;;-143.35;81.05;76589.31;4901634;29;20534;-79
2021/08/02 04:17:20;;;;;;;9.63;5.10;;;;;;;-143.35;81.10;76593.25;4888266;29;20471;-80
2021/08/02 04:20:09;;;;;;;7.87;5.30;;;;;;;-143.35;80.92;76593.25;4899436;29;20452;-80
2021/08/02 04:22:57;;;;;;;5.70;4.60;;;;;;;-143.35;80.44;76593.25;4887178;29;20503;-79
2021/08/02 04:25:44;;;;;;;8.27;5.23;;;;;;;-143.35;80.71;76599.19;4901953;29;20583;-80
2021/08/02 04:28:33;;;;;;;5.03;4.63;;;;;;;-143.35;80.76;76601.16;4905791;29;20448;-82
2021/08/02 04:31:21;;;;;;;13.37;4.83;;;;;;;-143.35;80.52;76601.16;4892229;29;20459;-77
2021/08/02 04:34:08;;;;;;;7.03;4.87;;;;;;;-143.35;80.01;76605.13;4903975;29;20890;-79
2021/08/02 04:36:56;;;;;;;5.50;4.60;;;;;;;-143.35;80.38;76624.91;4888220;29;20482;-82
2021/08/02 04:39:47;;;;;;;5.90;4.93;;;;;;;-143.35;80.59;76620.94;4902907;29;20444;-80
2021/08/02 04:42:35;;;;;;;7.17;4.70;;;;;;;-143.35;80.67;76617.00;4901719;29;20482;-79
2021/08/02 04:45:24;;;;;;;5.83;4.33;;;;;;;-143.35;80.55;76605.13;4902289;29;20832;-80
2021/08/02 04:48:12;;;;;;;6.03;4.60;;;;;;;-143.35;79.91;76593.25;4887960;29;20531;-78
2021/08/02 04:51:00;;;;;;;5.97;4.00;;;;;;;-143.35;79.36;76591.28;4902688;29;20447;-80
2021/08/02 04:53:47;;;;;;;10.73;8.13;;;;;;;-143.35;79.58;76587.31;4889086;29;20447;-81
2021/08/02 04:56:35;;;;;;;6.83;5.40;;;;;;;-143.35;79.62;76579.41;4903360;29;20475;-80
2021/08/02 04:59:22;;;;;;;8.27;4.83;;;;;;;-143.35;79.03;76581.38;4902634;29;20951;-79
2021/08/02 05:02:11;;;;;;;6.20;4.50;;;;;;;-143.35;79.47;76581.38;4902839;29;20511;-79
2021/08/02 05:04:59;;;;;;;6.87;5.37;;;;;;;-143.35;79.29;76581.38;4902833;29;20447;-80
2021/08/02 05:07:46;;;;;;;12.53;6.07;;;;;;;-143.35;79.16;76575.44;4902385;29;20448;-80
2021/08/02 05:10:37;;;;;;;10.10;6.00;;;;;;;-143.35;78.99;76577.44;4888304;29;20463;-80
2021/08/02 05:13:24;;;;;;;5.70;5.10;;;;;;;-143.35;79.34;76567.53;4903558;29;20475;-80
2021/08/02 05:16:12;;;;;;;7.90;7.10;;;;;;;-143.35;79.40;76567.53;4889100;29;20458;-80
2021/08/02 05:19:01;;;;;;;6.83;5.67;;;;;;;-143.35;79.08;76569.50;4903050;29;20485;-79
2021/08/02 05:22:01;;;;;;;9.33;6.63;;;;;;;-143.35;79.11;76569.50;4927948;23;20557;-82
2021/08/02 05:24:48;;;;;;;6.10;5.57;;;;;;;-143.35;79.02;76567.53;4877175;29;20455;-83
2021/08/02 05:27:37;;;;;;;6.87;5.17;;;;;;;-143.35;79.34;76561.59;4885032;29;20453;-83
2021/08/02 05:30:31;;;;;;;6.63;5.80;;;;;;;-143.35;79.18;76553.69;4876478;29;20498;-85
2021/08/02 05:33:18;;;;;;;7.27;5.70;;;;;;;-143.35;79.33;76537.88;4852837;29;20472;-83
2021/08/02 05:36:07;;;;;;;5.37;4.87;;;;;;;-143.35;79.44;76524.00;4879523;29;20452;-81
2021/08/02 05:38:55;;;;;;;7.87;5.80;;;;;;;-143.35;78.90;76522.03;4889244;29;20816;-83
2021/08/02 05:41:42;;;;;;;9.87;6.30;;;;;;;-143.35;78.96;76510.16;4904990;29;20456;-82
2021/08/02 05:44:30;;;;;;;7.00;5.40;;;;;;;-143.35;77.32;76516.09;4891079;29;20454;-82
2021/08/02 05:47:17;;;;;;;6.90;6.20;;;;;;;-143.35;77.37;76522.03;4905551;29;20951;-82
2021/08/02 05:50:06;;;;;;;11.00;6.20;;;;;;;-143.35;77.46;76518.09;4917279;29;20456;-81
2021/08/02 05:52:55;;;;;;;6.50;5.27;;;;;;;-143.35;77.99;76510.16;4889688;29;20471;-83
2021/08/02 05:55:42;;;;;;;7.37;5.50;;;;;;;-143.35;78.18;76498.28;4902504;29;20452;-82
2021/08/02 05:58:30;;;;;;;11.10;6.70;;;;;;;-143.35;78.04;76480.50;4889475;29;20507;-82
2021/08/02 06:01:17;;;;;;;11.20;5.70;;;;;;;-143.35;77.60;76490.38;4892279;29;20489;-81
2021/08/02 06:04:05;;;;;;;9.23;6.23;;;;;;;-143.35;75.66;76510.16;4884011;29;20488;-82
2021/08/02 06:06:54;;;;;;;9.57;5.40;;;;;;;-143.35;75.96;76529.94;4883872;29;20440;-82
2021/08/02 06:09:43;;;;;;;5.73;5.23;;;;;;;-143.35;76.67;76529.94;4883564;29;20543;-82
2021/08/02 06:12:30;;;;;;;9.97;5.33;;;;;;;-143.35;75.91;76537.88;4877449;29;20484;-81
2021/08/02 06:15:18;;;;;;;5.93;5.33;;;;;;;-143.35;76.13;76537.88;4883737;29;20456;-82
2021/08/02 06:18:06;;;;;;;10.53;5.30;;;;;;;-143.35;76.80;76541.81;4883485;29;20473;-82
2021/08/02 06:20:53;;;;;;;5.07;4.17;;;;;;;-143.35;75.77;76541.81;4883717;29;20684;-81
2021/08/02 06:23:41;;;;;;;10.17;5.10;;;;;;;-143.35;75.60;76539.84;4883565;29;20472;-82
2021/08/02 06:26:31;;;;;;;8.23;5.00;;;;;;;-143.35;75.18;76547.75;4882867;29;20459;-82
2021/08/02 06:29:18;;;;;;;8.27;4.83;;;;;;;-143.35;75.48;76541.81;4884423;29;20448;-83
2021/08/02 06:32:06;;;;;;;8.37;4.70;;;;;;;-143.35;75.03;76545.78;4858362;29;20474;-82
2021/08/02 06:34:55;;;;;;;10.70;4.37;;;;;;;-143.35;74.47;76549.72;4858023;29;20454;-83
2021/08/02 06:37:43;;;;;;;8.90;5.27;;;;;;;-143.35;74.88;76557.66;4866961;29;20472;-82
2021/08/02 06:40:30;;;;;;;7.63;4.70;;;;;;;-143.35;74.53;76553.69;4865932;29;20458;-82
2021/08/02 06:43:19;;;;;;;11.03;5.17;;;;;;;-143.35;74.21;76557.66;4866182;29;20473;-82
2021/08/02 06:46:07;;;;;;;11.00;5.00;;;;;;;-143.35;74.33;76551.72;4866088;29;20468;-82
2021/08/02 06:48:55;;;;;;;8.10;5.70;;;;;;;-143.35;73.87;76553.69;4852359;29;20524;-83
2021/08/02 06:51:42;;;;;;;7.47;4.50;;;;;;;-143.35;74.11;76557.66;4866321;29;20454;-84
2021/08/02 06:54:30;;;;;;;5.70;4.17;;;;;;;-143.35;74.78;76557.66;4865631;29;20448;-81
2021/08/02 06:57:19;;;;;;;13.40;4.60;;;;;;;-143.35;74.38;76555.66;4852873;29;20935;-81
2021/08/02 07:00:09;;;;;;;8.90;4.40;;;;;;;-143.35;74.71;76549.72;4866926;29;20486;-82
2021/08/02 07:02:58;;;;;;;6.90;5.20;;;;;;;-143.35;74.68;76539.84;4865875;29;20465;-83
2021/08/02 07:05:45;;;;;;;10.03;4.90;;;;;;;-143.35;73.70;76545.78;4866362;29;20950;-82
2021/08/02 07:08:33;;;;;;;6.03;4.53;;;;;;;-143.35;73.72;76545.78;4865364;29;20442;-82
2021/08/02 07:11:21;;;;;;;8.93;4.60;;;;;;;-143.35;73.50;76549.72;4865025;29;20454;-82
2021/08/02 07:14:08;;;;;;;7.30;5.53;;;;;;;-143.35;73.44;76541.81;4851497;29;20449;-83
2021/08/02 07:16:57;;;;;;;6.10;5.43;;;;;;;-143.35;73.82;76527.97;4865350;29;20453;-83
2021/08/02 07:19:45;;;;;;;12.00;5.60;;;;;;;-143.35;72.88;76522.03;4864561;29;20460;-83
2021/08/02 07:22:32;;;;;;;8.83;4.30;;;;;;;-143.35;72.53;76512.16;4860877;29;20480;-83
2021/08/02 07:25:20;;;;;;;7.93;4.40;;;;;;;-143.35;72.90;76500.28;4871940;29;20449;-83
2021/08/02 07:28:07;;;;;;;6.00;3.80;;;;;;;-143.35;73.10;76488.41;4875106;29;20445;-84
2021/08/02 07:30:55;;;;;;;7.20;3.90;;;;;;;-143.35;71.95;76488.41;4864080;29;20453;-83
2021/08/02 07:33:44;;;;;;;6.33;4.33;;;;;;;-143.35;71.15;76480.50;4877127;29;20493;-81
2021/08/02 07:36:32;;;;;;;8.57;3.83;;;;;;;-143.35;69.17;76480.50;4866450;29;20464;-84
2021/08/02 07:39:19;;;;;;;9.47;5.07;;;;;;;-143.35;69.30;76490.38;4876176;29;20479;-82
2021/08/02 07:42:07;;;;;;;8.23;5.43;;;;;;;-143.35;69.50;76494.34;4884408;29;20494;-81
2021/08/02 07:44:55;;;;;;;9.17;5.30;;;;;;;-143.35;69.71;76498.28;4884638;29;20451;-83
2021/08/02 07:47:42;;;;;;;11.20;5.07;;;;;;;-143.35;69.92;76500.28;4873640;29;20456;-79
2021/08/02 07:50:31;;;;;;;11.37;5.90;;;;;;;-143.35;69.96;76498.28;4882934;29;20543;-83
2021/08/02 07:53:19;;;;;;;8.13;5.13;;;;;;;-143.35;70.23;76502.25;4868190;29;20556;-83
2021/08/02 07:56:07;;;;;;;6.93;4.27;;;;;;;-143.35;70.13;76502.25;4875674;29;20552;-82
2021/08/02 07:58:55;;;;;;;8.90;4.40;;;;;;;-143.35;70.33;76506.22;4866502;29;20480;-83
2021/08/02 08:01:42;;;;;;;11.60;4.63;;;;;;;-143.35;69.86;76496.31;4867005;29;20586;-81
2021/08/02 08:04:30;;;;;;;6.70;4.00;;;;;;;-143.35;69.50;76480.50;4891743;29;20448;-83
2021/08/02 08:07:19;;;;;;;13.53;5.07;;;;;;;-143.35;67.86;76450.81;4897688;29;20817;-82
2021/08/02 08:10:07;;;;;;;12.60;6.30;;;;;;;-143.35;66.22;76429.06;4886659;29;20460;-82
2021/08/02 08:12:55;;;;;;;12.43;6.43;;;;;;;-143.35;64.23;76423.13;4883711;29;20571;-82
2021/08/02 08:15:43;;;;;;;10.17;4.93;;;;;;;-143.35;64.30;76423.13;4872338;29;20445;-83
2021/08/02 08:18:30;;;;;;;8.40;4.10;;;;;;;-143.35;64.54;76427.06;4871957;29;20464;-82
2021/08/02 08:21:18;;;;;;;11.80;4.63;;;;;;;-143.35;65.07;76433.00;4886327;29;20589;-83
2021/08/02 08:24:07;;;;;;;8.33;4.53;;;;;;;-143.35;64.89;76415.22;4885929;29;20441;-81
2021/08/02 08:26:55;;;;;;;9.83;4.10;;;;;;;-143.35;64.10;76407.28;4884272;29;20454;-82
2021/08/02 08:29:42;;;;;;;7.33;4.40;;;;;;;-143.35;63.85;76393.44;4867176;29;20481;-82
2021/08/02 08:32:30;;;;;;;7.97;4.10;;;;;;;-143.35;63.32;76379.59;4867285;29;20507;-81
2021/08/02 08:35:18;;;;;;;9.70;4.47;;;;;;;-143.35;62.60;76359.81;4866516;29;20529;-81
2021/08/02 08:38:05;;;;;;;9.30;4.17;;;;;;;-143.35;62.83;76365.75;4883784;29;20567;-81
2021/08/02 08:40:55;;;;;;;5.93;3.80;;;;;;;-143.35;63.15;76375.66;4883994;29;20449;-82
2021/08/02 08:43:45;;;;;;;9.00;4.27;;;;;;;-143.35;63.36;76377.63;4874724;29;20476;-81
2021/08/02 08:46:34;;;;;;;6.57;4.40;;;;;;;-143.35;64.25;76387.50;4884613;29;20448;-81
2021/08/02 08:49:21;;;;;;;9.53;5.40;;;;;;;-143.35;64.18;76403.34;4873213;29;20451;-79
2021/08/02 08:52:09;;;;;;;9.97;6.27;;;;;;;-143.35;64.10;76415.22;4871431;29;20513;-82
2021/08/02 08:54:57;;;;;;;11.27;5.80;;;;;;;-143.35;64.10;76436.97;4863164;29;20519;-82
2021/08/02 08:57:46;;;;;;;9.13;5.40;;;;;;;-143.35;64.39;76440.94;4870428;29;20473;-81
2021/08/02 09:00:35;;;;;;;6.57;5.07;;;;;;;-143.35;64.53;76450.81;4869060;29;21012;-79
2021/08/02 09:03:23;;;;;;;10.80;4.70;;;;;;;-143.35;64.75;76458.72;4857757;29;20512;-80
2021/08/02 09:06:11;;;;;;;7.73;4.60;;;;;;;-143.35;64.44;76456.75;4870946;29;20453;-81
2021/08/02 09:08:58;;;;;;;8.50;4.97;;;;;;;-143.35;63.89;76470.59;4875715;29;20449;-81
2021/08/02 09:11:46;;;;;;;7.07;4.63;;;;;;;-143.35;64.41;76468.63;4870100;29;20464;-80
2021/08/02 09:14:35;;;;;;;15.43;4.80;;;;;;;-143.35;64.15;76440.94;4856695;29;20457;-81
2021/08/02 09:17:35;;;;;;;10.30;4.50;;;;;;;-143.35;63.00;76413.22;4872180;29;20590;-81
2021/08/02 09:20:24;;;;;;;8.90;4.10;;;;;;;-143.35;62.68;76381.59;4856516;29;20457;-80
2021/08/02 09:23:14;;;;;;;10.93;4.17;;;;;;;-143.35;62.12;76359.81;4871831;29;20846;-81
2021/08/02 09:26:02;;;;;;;6.80;5.17;;;;;;;-143.35;61.04;76353.88;4872208;29;20469;-82
2021/08/02 09:28:53;;;;;;;4.77;3.90;;;;;;;-143.35;61.88;76332.13;4871702;29;20998;-83
2021/08/02 09:31:48;;;;;;;5.17;3.93;;;;;;;-143.35;61.21;76282.66;4871964;29;20466;-80
2021/08/02 09:34:45;;;;;;;4.97;4.43;;;;;;;-143.35;58.76;76256.97;4872255;29;20461;-80
2021/08/02 09:37:33;;;;;;;4.83;4.30;;;;;;;-143.35;59.10;76245.09;4881167;29;20192;-81
2021/08/02 09:40:20;;;;;;;7.13;3.97;;;;;;;-143.35;57.95;76215.41;4882129;29;20457;-80
2021/08/02 09:43:10;;;;;;;5.40;3.80;;;;;;;-143.35;56.80;76233.22;4874767;29;20219;-79
2021/08/02 09:45:59;;;;;;;6.87;3.60;;;;;;;-143.35;57.23;76235.19;4876114;29;20453;-79
2021/08/02 09:48:48;;;;;;;6.10;3.80;;;;;;;-143.35;56.63;76201.56;4877853;29;20976;-78
2021/08/02 09:51:43;;;;;;;7.30;4.60;;;;;;;-143.35;56.86;76169.91;4877033;29;20679;-81
2021/08/02 09:54:31;;;;;;;5.08;3.58;;;;;;;-143.35;54.32;76150.13;4855652;29;20309;-77
2021/08/02 09:57:18;;;;;;;5.27;3.70;;;;;;;-143.35;53.73;76122.44;4872285;29;20661;-78
2021/08/02 10:00:08;;;;;;;4.23;3.83;;;;;;;-143.35;52.97;76090.81;4860142;29;20509;-77
2021/08/02 10:03:00;;;;;;;5.13;3.63;;;;;;;-143.35;50.94;76071.03;4868705;29;20564;-76
2021/08/02 10:05:50;;;;;;;5.50;3.60;;;;;;;-143.35;50.91;76039.38;4855486;29;20465;-76
2021/08/02 10:08:38;;;;;;;4.57;3.00;;;;;;;-143.35;51.30;75985.97;4869943;29;20452;-78
2021/08/02 10:11:26;;;;;;;4.87;3.27;;;;;;;-143.35;49.24;75944.44;4868632;29;20524;-77
2021/08/02 10:14:14;;;;;;;2.50;2.30;;;;;;;-143.35;46.43;75950.38;4869010;29;20465;-78
2021/08/02 10:17:07;;;;;;;3.67;2.70;;;;;;;-143.35;45.89;75938.50;4859761;29;20463;-77
2021/08/02 10:19:56;;;;;;;4.03;2.70;;;;;;;-143.35;46.16;75999.81;4854074;29;20829;-78
2021/08/02 10:22:56;;;;;;;3.10;2.80;;;;;;;-143.35;46.78;76033.44;4867031;29;20507;-80
2021/08/02 10:25:43;;;;;;;3.30;2.67;;;;;;;-143.35;47.29;76031.47;4853947;29;20459;-78
2021/08/02 10:28:31;;;;;;;3.10;2.73;;;;;;;-143.35;47.32;76009.69;4860213;29;20453;-78
2021/08/02 10:31:19;;;;;;;4.93;2.57;;;;;;;-143.35;46.51;75940.47;4868453;29;20613;-79
2021/08/02 10:34:15;;;;;;;3.47;2.90;;;;;;;-143.35;44.23;75861.34;4869338;29;20461;-80
2021/08/02 10:37:04;;;;;;;2.57;2.37;;;;;;;-143.35;43.54;75873.22;4868681;29;20464;-79
2021/08/02 10:40:01;;;;;;;3.73;3.40;;;;;;;-143.35;43.03;75908.81;4870738;29;20810;-79
2021/08/02 10:42:50;;;;;;;4.47;3.00;;;;;;;-143.35;44.52;75885.09;4863456;29;20472;-79
2021/08/02 10:45:39;;;;;;;3.97;2.93;;;;;;;-143.35;44.98;75817.84;4868789;29;20456;-78
2021/08/02 10:48:29;;;;;;;4.67;3.47;;;;;;;-143.35;42.80;75790.16;4869505;29;20499;-79
2021/08/02 10:51:18;;;;;;;3.80;3.40;;;;;;;-143.35;43.31;75786.19;4862991;29;20443;-79
2021/08/02 10:54:07;;;;;;;4.47;3.20;;;;;;;-143.35;44.41;75768.41;4869329;29;20477;-79
2021/08/02 10:56:57;;;;;;;4.53;3.50;;;;;;;-143.35;42.21;75805.97;4869803;29;20519;-80
2021/08/02 10:59:46;;;;;;;5.60;3.40;;;;;;;-143.35;43.91;75869.28;4870537;29;20899;-79
2021/08/02 11:02:33;;;;;;;5.17;4.20;;;;;;;-143.35;42.84;75875.19;4868497;29;20542;-79
2021/08/02 11:05:22;;;;;;;6.20;3.93;;;;;;;-143.35;42.82;75881.13;4858084;29;20588;-78
2021/08/02 11:08:09;;;;;;;4.67;4.03;;;;;;;-143.35;43.86;75920.69;4866364;29;20553;-76
2021/08/02 11:10:57;;;;;;;5.73;4.20;;;;;;;-143.35;44.59;75984.00;4867563;29;20447;-79
2021/08/02 11:13:46;;;;;;;5.83;3.10;;;;;;;-143.35;46.19;76015.63;4857629;29;20455;-77
2021/08/02 11:16:39;;;;;;;4.27;3.87;;;;;;;-143.35;47.16;76041.34;4864803;29;20463;-77
2021/08/02 11:19:29;;;;;;;6.20;3.70;;;;;;;-143.35;47.83;76082.88;4866813;29;20488;-76
2021/08/02 11:22:25;;;;;;;4.83;3.60;;;;;;;-143.35;49.49;76116.50;4866464;23;20484;-77
2021/08/02 11:25:21;;;;;;;6.00;5.40;;;;;;;-143.35;51.43;76156.06;4858149;29;20474;-78
2021/08/02 11:28:13;;;;;;;7.83;5.00;;;;;;;-143.35;52.49;76165.97;4866017;29;20460;-79
2021/08/02 11:31:14;;;;;;;6.23;4.57;;;;;;;-143.35;52.29;76126.41;4868966;29;20456;-77
2021/08/02 11:34:02;;;;;;;5.83;4.43;;;;;;;-143.35;51.67;76104.66;4841353;29;20485;-81
2021/08/02 11:37:00;;;;;;;5.00;4.50;;;;;;;-143.35;52.09;76092.78;4851205;29;20497;-81
2021/08/02 11:39:56;;;;;;;8.70;5.73;;;;;;;-143.35;51.91;76071.03;4853480;29;20565;-80
2021/08/02 11:42:47;;;;;;;5.37;4.87;;;;;;;-143.35;51.57;76009.69;4852866;29;20561;-81
2021/08/02 11:45:35;;;;;;;6.47;5.23;;;;;;;-143.35;50.54;75982.00;4843630;29;20450;-81
2021/08/02 11:48:24;;;;;;;8.67;5.73;;;;;;;-143.35;49.98;75968.16;4838556;29;20458;-81
2021/08/02 11:51:13;;;;;;;5.70;4.67;;;;;;;-143.35;49.95;75956.28;4837752;29;20420;-81
2021/08/02 11:54:00;;;;;;;5.97;5.03;;;;;;;-143.35;48.76;75956.28;4838234;29;20470;-81
2021/08/02 11:56:49;;;;;;;6.50;5.60;;;;;;;-143.35;48.93;75960.25;4837897;29;20468;-80
2021/08/02 11:59:36;;;;;;;6.87;5.83;;;;;;;-143.35;49.56;76007.72;4835618;29;20990;-81
2021/08/02 12:02:32;;;;;;;6.67;5.43;;;;;;;-143.35;48.59;75946.41;4847162;29;20466;-82
2021/08/02 12:05:23;;;;;;;6.60;4.90;;;;;;;-143.35;47.54;75940.47;4850608;29;20455;-81
2021/08/02 12:08:13;;;;;;;6.40;4.70;;;;;;;-143.35;46.70;75932.56;4845322;29;21035;-82
2021/08/02 12:11:02;;;;;;;6.43;5.03;;;;;;;-143.35;47.92;75936.50;4840127;29;20440;-81
2021/08/02 12:13:51;;;;;;;6.70;6.10;;;;;;;-143.35;47.34;75966.19;4842815;29;20515;-82
2021/08/02 12:16:39;;;;;;;6.30;5.37;;;;;;;-143.35;47.66;75991.91;4845840;29;20452;-82
2021/08/02 12:19:26;;;;;;;6.20;5.70;;;;;;;-143.35;48.07;75982.00;4856450;29;20505;-83
2021/08/02 12:22:17;;;;;;;5.80;5.27;;;;;;;-143.35;47.02;75982.00;4835807;29;20454;-82
2021/08/02 12:25:07;;;;;;;6.53;5.90;;;;;;;-143.35;47.14;75987.94;4837718;29;20577;-80
2021/08/02 12:27:59;;;;;;;7.97;5.40;;;;;;;-143.35;48.05;75948.38;4864434;29;20453;-82
2021/08/02 12:30:57;;;;;;;7.10;5.40;;;;;;;-143.35;46.38;75914.75;4851515;29;20943;-82
2021/08/02 12:33:46;;;;;;;;;;;;;;;-143.35;45.38;75869.28;4858989;29;20313;-82
2021/08/02 12:36:33;;;;;;;6.32;4.38;;;;;;;-143.35;44.11;75865.31;4849688;29;20438;-82
2021/08/02 12:39:24;;;;;;;4.63;4.17;;;;;;;-143.35;44.29;75794.09;4842702;29;20212;-81
2021/08/02 12:42:13;;;;;;;4.33;3.93;;;;;;;-143.35;42.92;75693.25;4863620;29;20431;-81
2021/08/02 12:45:01;;;;;;;5.37;4.30;;;;;;;-143.35;41.00;75641.81;4843226;29;20470;-81
2021/08/02 12:47:50;;;;;;;6.17;4.50;;;;;;;-143.35;41.20;75645.78;4856413;29;20494;-82
2021/08/02 12:50:41;;;;;;;4.37;3.90;;;;;;;-143.35;41.14;75635.88;4859885;29;20442;-82
2021/08/02 12:53:35;;;;;;;4.87;4.37;;;;;;;-143.35;40.48;75598.31;4849711;29;20448;-82
2021/08/02 12:56:24;;;;;;;7.33;4.20;;;;;;;-143.35;40.52;75578.53;4863126;29;20482;-82